createdAt,value
2022-09-28T00:01:20.858Z,98505.27
2022-09-28T00:03:50.076Z,98504.86
2022-09-28T00:06:20.896Z,98507.29
2022-09-28T00:08:49.575Z,98503.08
2022-09-28T00:11:18.344Z,98499.83
2022-09-28T00:13:51.157Z,98494.83
2022-09-28T00:16:20.940Z,98497.28
2022-09-28T00:18:48.533Z,98493.52
2022-09-28T00:21:19.086Z,98487.89
2022-09-28T00:24:04.759Z,98481.39
2022-09-28T00:26:34.144Z,98479.67
2022-09-28T00:29:02.158Z,98479.58
2022-09-28T00:31:32.355Z,98483.96
2022-09-28T00:34:01.148Z,98489.31
2022-09-28T00:36:29.732Z,98487.73
2022-09-28T00:38:57.666Z,98494.22
2022-09-28T00:41:27.109Z,98490.61
2022-09-28T00:44:14.610Z,98486.35
2022-09-28T00:46:41.609Z,98488.14
2022-09-28T00:49:14.697Z,98486.84
2022-09-28T00:51:43.918Z,98488.85
2022-09-28T00:54:12.266Z,98493.23
2022-09-28T00:56:43.256Z,98494.54
2022-09-28T00:59:10.424Z,98486.20
2022-09-28T01:01:37.217Z,98492.78
2022-09-28T01:04:05.890Z,98492.00
2022-09-28T01:06:35.634Z,98492.40
2022-09-28T01:09:07.309Z,98493.45
2022-09-28T01:11:37.514Z,98495.78
2022-09-28T01:14:08.223Z,98488.14
2022-09-28T01:17:01.822Z,98490.05
2022-09-28T01:19:47.297Z,98489.34
2022-09-28T01:22:51.883Z,98488.88
2022-09-28T01:25:39.603Z,98485.29
2022-09-28T01:28:08.649Z,98483.69
2022-09-28T01:31:02.888Z,98485.13
2022-09-28T01:33:55.243Z,98484.70
2022-09-28T01:36:34.495Z,98483.56
2022-09-28T01:39:08.469Z,98483.86
2022-09-28T01:41:55.288Z,98490.16
2022-09-28T01:44:43.895Z,98493.76
2022-09-28T01:47:14.741Z,98497.74
2022-09-28T01:49:59.379Z,98496.40
2022-09-28T01:52:42.296Z,98496.14
2022-09-28T01:55:25.974Z,98496.27
2022-09-28T01:57:59.743Z,98496.50
2022-09-28T02:00:27.687Z,98494.45
2022-09-28T02:03:28.958Z,98490.39
2022-09-28T02:06:05.534Z,98490.39
2022-09-28T02:08:53.922Z,98489.34
2022-09-28T02:11:22.569Z,98481.81
2022-09-28T02:14:11.378Z,98478.69
2022-09-28T02:16:44.662Z,98480.98
2022-09-28T02:19:15.706Z,98484.90
2022-09-28T02:21:42.450Z,98491.54
2022-09-28T02:24:24.816Z,98497.05
2022-09-28T02:26:54.798Z,98501.23
2022-09-28T02:29:21.465Z,98500.58
2022-09-28T02:31:48.831Z,98500.05
2022-09-28T02:34:15.527Z,98498.95
2022-09-28T02:36:44.546Z,98501.92
2022-09-28T02:39:16.500Z,98499.48
2022-09-28T02:42:03.194Z,98497.07
2022-09-28T02:45:27.453Z,98492.05
2022-09-28T02:48:12.465Z,98492.40
2022-09-28T02:50:51.154Z,98490.97
2022-09-28T02:53:20.885Z,98498.48
2022-09-28T02:56:15.894Z,98495.61
2022-09-28T02:58:51.836Z,98490.84
2022-09-28T03:01:45.037Z,98489.04
2022-09-28T03:04:30.470Z,98490.35
2022-09-28T03:07:03.033Z,98495.45
2022-09-28T03:09:46.838Z,98490.64
2022-09-28T03:12:15.989Z,98493.64
2022-09-28T03:14:42.538Z,98493.67
2022-09-28T03:17:09.158Z,98494.13
2022-09-28T03:19:36.594Z,98495.68
2022-09-28T03:22:03.687Z,98497.54
2022-09-28T03:24:30.264Z,98501.66
2022-09-28T03:26:56.963Z,98499.11
2022-09-28T03:29:23.696Z,98498.89
2022-09-28T03:31:50.388Z,98498.17
2022-09-28T03:34:17.138Z,98499.21
2022-09-28T03:36:43.973Z,98499.80
2022-09-28T03:39:10.703Z,98502.52
2022-09-28T03:41:37.718Z,98498.99
2022-09-28T03:44:04.741Z,98496.68
2022-09-28T03:46:31.317Z,98491.55
2022-09-28T03:48:58.858Z,98491.68
2022-09-28T03:51:26.176Z,98488.88
2022-09-28T03:53:52.888Z,98489.17
2022-09-28T03:56:19.505Z,98489.46
2022-09-28T03:58:46.254Z,98487.67
2022-09-28T04:01:18.026Z,98489.04
2022-09-28T04:03:45.927Z,98485.88
2022-09-28T04:06:13.413Z,98486.36
2022-09-28T04:08:40.357Z,98487.46
2022-09-28T04:11:10.409Z,98486.48
2022-09-28T04:13:37.009Z,98484.55
2022-09-28T04:16:04.768Z,98484.27
2022-09-28T04:18:32.835Z,98485.19
2022-09-28T04:21:06.210Z,98488.05
2022-09-28T04:23:35.173Z,98488.52
2022-09-28T04:26:03.461Z,98494.52
2022-09-28T04:28:48.789Z,98494.39
2022-09-28T04:31:21.966Z,98497.08
2022-09-28T04:33:49.310Z,98500.75
2022-09-28T04:36:16.095Z,98500.42
2022-09-28T04:38:52.874Z,98493.03
2022-09-28T04:41:21.770Z,98490.48
2022-09-28T04:43:48.901Z,98485.73
2022-09-28T04:46:15.951Z,98487.25
2022-09-28T04:48:43.073Z,98488.85
2022-09-28T04:51:11.045Z,98488.13
2022-09-28T04:53:37.948Z,98490.63
2022-09-28T04:56:14.178Z,98484.45
2022-09-28T04:58:41.765Z,98484.84
2022-09-28T05:01:14.957Z,98483.46
2022-09-28T05:03:42.169Z,98485.33
2022-09-28T05:06:12.507Z,98488.91
2022-09-28T05:08:39.204Z,98491.09
2022-09-28T05:11:08.554Z,98491.52
2022-09-28T05:13:44.844Z,98490.40
2022-09-28T05:16:15.221Z,98492.11
2022-09-28T05:18:42.565Z,98495.11
2022-09-28T05:21:14.898Z,98493.94
2022-09-28T05:23:46.778Z,98495.15
2022-09-28T05:26:14.297Z,98496.88
2022-09-28T05:28:40.995Z,98504.23
2022-09-28T05:31:07.877Z,98507.30
2022-09-28T05:33:34.525Z,98503.06
2022-09-28T05:36:02.044Z,98502.18
2022-09-28T05:38:29.910Z,98502.80
2022-09-28T05:40:57.100Z,98504.17
2022-09-28T05:43:24.044Z,98503.42
2022-09-28T05:45:55.253Z,98507.90
2022-09-28T05:48:22.795Z,98510.52
2022-09-28T05:50:52.829Z,98515.63
2022-09-28T05:53:26.105Z,98521.10
2022-09-28T05:55:52.854Z,98530.20
2022-09-28T05:58:19.523Z,98533.86
2022-09-28T06:00:57.083Z,98538.52
2022-09-28T06:03:33.724Z,98540.38
2022-09-28T06:06:19.134Z,98539.19
2022-09-28T06:08:47.888Z,98543.34
2022-09-28T06:11:14.567Z,98545.52
2022-09-28T06:13:41.238Z,98544.08
2022-09-28T06:16:26.558Z,98547.11
2022-09-28T06:19:12.375Z,98551.45
2022-09-28T06:21:39.981Z,98547.77
2022-09-28T06:24:25.515Z,98546.66
2022-09-28T06:26:52.424Z,98548.98
2022-09-28T06:29:37.608Z,98550.16
2022-09-28T06:32:04.385Z,98556.37
2022-09-28T06:34:54.026Z,98558.20
2022-09-28T06:37:28.395Z,98558.84
2022-09-28T06:40:14.225Z,98557.81
2022-09-28T06:43:14.131Z,98557.52
2022-09-28T06:45:51.667Z,98554.62
2022-09-28T06:48:33.521Z,98552.34
2022-09-28T06:51:19.062Z,98554.73
2022-09-28T06:53:53.495Z,98558.16
2022-09-28T06:56:20.745Z,98558.20
2022-09-28T06:58:47.899Z,98556.87
2022-09-28T07:01:14.698Z,98558.55
2022-09-28T07:03:41.508Z,98563.73
2022-09-28T07:06:12.225Z,98569.65
2022-09-28T07:08:38.939Z,98575.73
2022-09-28T07:11:07.298Z,98577.23
2022-09-28T07:13:49.708Z,98578.15
2022-09-28T07:16:21.541Z,98579.98
2022-09-28T07:18:50.943Z,98581.04
2022-09-28T07:21:27.532Z,98579.41
2022-09-28T07:23:57.047Z,98578.36
2022-09-28T07:26:25.168Z,98573.62
2022-09-28T07:28:52.049Z,98573.55
2022-09-28T07:31:19.962Z,98575.00
2022-09-28T07:34:05.485Z,98578.43
2022-09-28T07:36:35.279Z,98581.85
2022-09-28T07:39:02.738Z,98582.40
2022-09-28T07:41:32.213Z,98581.14
2022-09-28T07:44:05.557Z,98583.77
2022-09-28T07:46:34.036Z,98582.36
2022-09-28T07:49:01.221Z,98578.05
2022-09-28T07:51:27.854Z,98576.03
2022-09-28T07:53:54.504Z,98576.91
2022-09-28T07:56:21.207Z,98582.89
2022-09-28T07:58:49.223Z,98583.96
2022-09-28T08:01:17.143Z,98583.02
2022-09-28T08:03:45.877Z,98589.80
2022-09-28T08:06:15.978Z,98592.80
2022-09-28T08:08:44.267Z,98603.56
2022-09-28T08:11:16.290Z,98605.27
2022-09-28T08:13:45.057Z,98606.34
2022-09-28T08:16:12.256Z,98608.13
2022-09-28T08:18:39.121Z,98611.33
2022-09-28T08:21:24.639Z,98612.89
2022-09-28T08:23:51.397Z,98606.40
2022-09-28T08:26:18.061Z,98610.96
2022-09-28T08:28:46.300Z,98608.59
2022-09-28T08:31:12.973Z,98613.20
2022-09-28T08:33:42.094Z,98612.33
2022-09-28T08:36:10.895Z,98612.30
2022-09-28T08:38:37.773Z,98618.71
2022-09-28T08:41:04.657Z,98615.71
2022-09-28T08:43:40.405Z,98615.66
2022-09-28T08:46:10.422Z,98617.41
2022-09-28T08:49:13.427Z,98614.11
2022-09-28T08:51:57.324Z,98621.09
2022-09-28T08:54:36.364Z,98618.27
2022-09-28T08:57:10.798Z,98616.49
2022-09-28T08:59:51.714Z,98618.23
2022-09-28T09:02:26.513Z,98622.51
2022-09-28T09:04:55.105Z,98625.91
2022-09-28T09:07:56.044Z,98632.30
2022-09-28T09:11:03.656Z,98630.63
2022-09-28T09:14:27.180Z,98630.59
2022-09-28T09:17:26.124Z,98629.51
2022-09-28T09:19:58.267Z,98627.73
2022-09-28T09:22:34.434Z,98631.23
2022-09-28T09:25:14.278Z,98631.42
2022-09-28T09:27:53.855Z,98632.74
2022-09-28T09:30:27.886Z,98630.34
2022-09-28T09:33:04.300Z,98636.18
2022-09-28T09:36:01.466Z,98643.84
2022-09-28T09:39:02.864Z,98640.69
2022-09-28T09:41:53.780Z,98642.17
2022-09-28T09:44:32.328Z,98642.54
2022-09-28T09:47:08.194Z,98649.85
2022-09-28T09:49:44.651Z,98650.85
2022-09-28T09:55:16.428Z,98650.35
2022-09-28T09:58:02.277Z,98658.98
2022-09-28T10:00:29.278Z,98654.13
2022-09-28T10:02:57.300Z,98656.78
2022-09-28T10:05:29.298Z,98658.80
2022-09-28T10:08:07.862Z,98656.08
2022-09-28T10:10:38.304Z,98659.31
2022-09-28T10:13:09.545Z,98661.87
2022-09-28T10:15:37.415Z,98664.70
2022-09-28T10:18:10.045Z,98672.34
2022-09-28T10:20:42.383Z,98670.71
2022-09-28T10:23:23.375Z,98663.12
2022-09-28T10:25:53.668Z,98667.94
2022-09-28T10:28:49.253Z,98669.35
2022-09-28T10:31:37.738Z,98677.45
2022-09-28T10:34:07.298Z,98669.13
2022-09-28T10:36:47.074Z,98663.53
2022-09-28T10:39:31.314Z,98663.05
2022-09-28T10:42:04.458Z,98666.84
2022-09-28T10:44:43.745Z,98666.88
2022-09-28T10:47:18.035Z,98667.23
2022-09-28T10:49:48.610Z,98661.51
2022-09-28T10:52:41.398Z,98664.57
2022-09-28T10:55:31.731Z,98663.24
2022-09-28T10:57:59.884Z,98662.84
2022-09-28T11:00:41.364Z,98667.27
2022-09-28T11:03:22.263Z,98664.92
2022-09-28T11:05:57.710Z,98662.75
2022-09-28T11:08:44.523Z,98663.59
2022-09-28T11:11:14.552Z,98663.94
2022-09-28T11:14:01.204Z,98665.20
2022-09-28T11:16:34.107Z,98663.55
2022-09-28T11:19:25.992Z,98662.69
2022-09-28T11:21:52.638Z,98664.23
2022-09-28T11:24:25.517Z,98665.80
2022-09-28T11:26:56.545Z,98663.90
2022-09-28T11:29:34.196Z,98658.54
2022-09-28T11:32:03.762Z,98653.02
2022-09-28T11:34:59.738Z,98655.59
2022-09-28T11:37:30.776Z,98656.75
2022-09-28T11:40:23.071Z,98666.08
2022-09-28T11:43:25.298Z,98664.34
2022-09-28T11:46:05.818Z,98664.52
2022-09-28T11:48:43.254Z,98658.56
2022-09-28T11:51:34.130Z,98658.70
2022-09-28T11:54:33.132Z,98658.19
2022-09-28T11:57:04.032Z,98659.44
2022-09-28T11:59:42.528Z,98662.33
2022-09-28T12:02:22.099Z,98666.04
2022-09-28T12:05:20.734Z,98666.25
2022-09-28T12:08:01.802Z,98667.98
2022-09-28T12:10:45.443Z,98671.07
2022-09-28T12:13:24.820Z,98671.88
2022-09-28T12:16:27.626Z,98675.11
2022-09-28T12:19:04.172Z,98677.67
2022-09-28T12:21:37.242Z,98680.35
2022-09-28T12:24:21.049Z,98681.44
2022-09-28T12:26:57.888Z,98685.36
2022-09-28T12:29:30.192Z,98676.98
2022-09-28T12:32:28.108Z,98677.90
2022-09-28T12:34:56.155Z,98684.19
2022-09-28T12:37:54.454Z,98684.56
2022-09-28T12:40:35.629Z,98677.73
2022-09-28T12:43:21.000Z,98678.27
2022-09-28T12:46:11.525Z,98681.15
2022-09-28T12:49:47.314Z,98682.27
2022-09-28T12:52:01.931Z,98678.77
2022-09-28T12:58:05.926Z,98674.24
2022-09-28T13:00:58.586Z,98674.27
2022-09-28T13:03:45.300Z,98673.81
2022-09-28T13:06:46.785Z,98675.16
2022-09-28T13:09:25.181Z,98672.55
2022-09-28T13:12:13.710Z,98675.84
2022-09-28T13:14:46.217Z,98671.68
2022-09-28T13:17:40.495Z,98672.04
2022-09-28T13:20:44.759Z,98670.95
2022-09-28T13:23:23.628Z,98672.91
2022-09-28T13:26:16.625Z,98668.94
2022-09-28T13:28:46.458Z,98672.95
2022-09-28T13:31:21.326Z,98668.45
2022-09-28T13:33:50.101Z,98668.98
2022-09-28T13:36:26.033Z,98670.54
2022-09-28T13:38:56.757Z,98670.55
2022-09-28T13:41:37.117Z,98671.27
2022-09-28T13:44:12.803Z,98671.82
2022-09-28T13:47:08.830Z,98665.65
2022-09-28T13:50:01.738Z,98670.59
2022-09-28T13:52:40.585Z,98664.94
2022-09-28T13:55:35.848Z,98665.94
2022-09-28T13:58:15.718Z,98666.06
2022-09-28T14:00:51.041Z,98663.59
2022-09-28T14:04:10.061Z,98659.42
2022-09-28T14:06:57.083Z,98656.28
2022-09-28T14:10:08.952Z,98655.85
2022-09-28T14:12:51.334Z,98659.69
2022-09-28T14:15:36.571Z,98663.27
2022-09-28T14:18:29.326Z,98662.56
2022-09-28T14:21:02.143Z,98650.92
2022-09-28T14:24:22.795Z,98658.13
2022-09-28T14:27:08.842Z,98658.98
2022-09-28T14:30:05.918Z,98657.73
2022-09-28T14:32:36.565Z,98652.63
2022-09-28T14:35:30.857Z,98661.42
2022-09-28T14:38:38.224Z,98661.13
2022-09-28T14:41:19.689Z,98659.60
2022-09-28T14:43:58.065Z,98658.34
2022-09-28T14:46:25.043Z,98656.23
2022-09-28T14:49:03.295Z,98649.08
2022-09-28T14:51:57.661Z,98653.05
2022-09-28T14:54:27.396Z,98660.23
2022-09-28T14:56:56.489Z,98660.14
2022-09-28T14:59:25.090Z,98661.89
2022-09-28T15:02:09.019Z,98660.14
2022-09-28T15:05:02.118Z,98655.78
2022-09-28T15:07:46.276Z,98654.21
2022-09-28T15:10:35.385Z,98657.16
2022-09-28T15:13:27.448Z,98662.15
2022-09-28T15:16:03.998Z,98659.77
2022-09-28T15:19:12.872Z,98658.58
2022-09-28T15:21:42.385Z,98658.44
2022-09-28T15:24:25.908Z,98660.88
2022-09-28T15:27:18.623Z,98659.82
2022-09-28T15:30:22.918Z,98666.47
2022-09-28T15:33:22.179Z,98671.49
2022-09-28T15:36:03.791Z,98671.64
2022-09-28T15:39:07.680Z,98665.73
2022-09-28T15:41:56.693Z,98662.18
2022-09-28T15:44:36.489Z,98658.02
2022-09-28T15:47:27.556Z,98657.91
2022-09-28T15:50:19.672Z,98650.30
2022-09-28T15:53:05.865Z,98651.71
2022-09-28T15:55:51.393Z,98660.19
2022-09-28T15:58:32.745Z,98651.19
2022-09-28T16:01:50.549Z,98648.35
2022-09-28T16:04:42.610Z,98649.11
2022-09-28T16:07:38.137Z,98642.75
2022-09-28T16:10:34.599Z,98650.35
2022-09-28T16:13:24.058Z,98655.91
2022-09-28T16:16:16.230Z,98654.58
2022-09-28T16:18:48.420Z,98655.55
2022-09-28T16:21:28.505Z,98656.79
2022-09-28T16:24:24.696Z,98652.11
2022-09-28T16:27:01.795Z,98649.55
2022-09-28T16:29:44.675Z,98647.09
2022-09-28T16:33:00.920Z,98634.96
2022-09-28T16:35:50.974Z,98633.27
2022-09-28T16:38:38.884Z,98634.55
2022-09-28T16:41:28.464Z,98633.55
2022-09-28T16:44:25.428Z,98630.27
2022-09-28T16:47:06.514Z,98624.67
2022-09-28T16:49:33.420Z,98625.17
2022-09-28T16:52:01.450Z,98624.28
2022-09-28T16:55:22.756Z,98623.52
2022-09-28T16:58:13.894Z,98622.83
2022-09-28T17:01:02.056Z,98617.70
2022-09-28T17:03:50.750Z,98622.75
2022-09-28T17:06:34.575Z,98638.62
2022-09-28T17:09:21.755Z,98644.14
2022-09-28T17:11:55.574Z,98638.26
2022-09-28T17:14:33.130Z,98625.94
2022-09-28T17:17:08.947Z,98617.80
2022-09-28T17:19:52.081Z,98620.47
2022-09-28T17:22:39.273Z,98622.61
2022-09-28T17:25:09.049Z,98623.16
2022-09-28T17:27:57.104Z,98617.95
2022-09-28T17:30:42.769Z,98616.12
2022-09-28T17:33:30.984Z,98617.72
2022-09-28T17:36:14.475Z,98608.92
2022-09-28T17:38:56.791Z,98607.23
2022-09-28T17:41:43.029Z,98613.86
2022-09-28T17:44:31.198Z,98614.00
2022-09-28T17:47:19.425Z,98614.36
2022-09-28T17:50:29.418Z,98614.96
2022-09-28T17:53:17.509Z,98614.45
2022-09-28T17:56:06.523Z,98620.50
2022-09-28T17:59:14.679Z,98627.73
2022-09-28T18:02:02.846Z,98634.89
2022-09-28T18:04:52.584Z,98633.38
2022-09-28T18:07:47.551Z,98642.73
2022-09-28T18:10:36.411Z,98644.10
2022-09-28T18:13:25.128Z,98647.91
2022-09-28T18:16:14.309Z,98653.11
2022-09-28T18:18:47.285Z,98656.95
2022-09-28T18:21:32.909Z,98660.55
2022-09-28T18:24:21.041Z,98666.79
2022-09-28T18:27:09.159Z,98671.96
2022-09-28T18:29:57.394Z,98674.06
2022-09-28T18:32:45.495Z,98682.51
2022-09-28T18:35:34.017Z,98691.41
2022-09-28T18:38:22.038Z,98697.70
2022-09-28T18:41:15.017Z,98700.58
2022-09-28T18:44:02.994Z,98706.42
2022-09-28T18:46:51.181Z,98714.81
2022-09-28T18:49:45.916Z,98716.52
2022-09-28T18:52:36.558Z,98716.66
2022-09-28T18:55:24.255Z,98718.61
2022-09-28T18:58:12.947Z,98727.88
2022-09-28T19:01:28.464Z,98729.98
2022-09-28T19:04:15.707Z,98735.88
2022-09-28T19:07:03.841Z,98739.91
2022-09-28T19:09:52.783Z,98740.73
2022-09-28T19:12:40.317Z,98742.71
2022-09-28T19:15:28.440Z,98742.88
2022-09-28T19:18:16.531Z,98745.16
2022-09-28T19:21:18.402Z,98750.23
2022-09-28T19:24:06.542Z,98747.59
2022-09-28T19:26:54.629Z,98744.95
2022-09-28T19:29:42.775Z,98736.83
2022-09-28T19:32:30.939Z,98729.66
2022-09-28T19:35:19.162Z,98721.90
2022-09-28T19:38:07.294Z,98714.00
2022-09-28T19:40:56.672Z,98707.23
2022-09-28T19:43:45.035Z,98704.15
2022-09-28T19:46:34.689Z,98697.94
2022-09-28T19:49:24.448Z,98687.17
2022-09-28T19:52:17.140Z,98682.95
2022-09-28T19:55:06.314Z,98674.82
2022-09-28T19:57:54.990Z,98677.86
2022-09-28T20:00:42.774Z,98675.02
2022-09-28T20:03:31.109Z,98667.52
2022-09-28T20:06:19.527Z,98662.78
2022-09-28T20:09:07.328Z,98662.72
2022-09-28T20:11:55.598Z,98667.21
2022-09-28T20:14:43.847Z,98669.71
2022-09-28T20:17:32.235Z,98675.38
2022-09-28T20:20:20.820Z,98675.23
2022-09-28T20:23:09.380Z,98670.02
2022-09-28T20:25:58.506Z,98675.73
2022-09-28T20:28:46.692Z,98680.19
2022-09-28T20:31:37.748Z,98679.48
2022-09-28T20:34:25.983Z,98682.08
2022-09-28T20:37:16.750Z,98681.27
2022-09-28T20:40:04.813Z,98679.91
2022-09-28T20:42:53.037Z,98680.13
2022-09-28T20:45:41.272Z,98685.39
2022-09-28T20:48:30.074Z,98678.84
2022-09-28T20:51:19.578Z,98672.24
2022-09-28T20:54:07.885Z,98666.52
2022-09-28T20:56:56.077Z,98664.16
2022-09-28T20:59:45.152Z,98665.61
2022-09-28T21:02:33.369Z,98667.84
2022-09-28T21:05:21.724Z,98669.72
2022-09-28T21:08:09.838Z,98666.45
2022-09-28T21:10:58.075Z,98669.48
2022-09-28T21:13:46.354Z,98670.60
2022-09-28T21:16:35.400Z,98667.86
2022-09-28T21:19:27.925Z,98673.48
2022-09-28T21:22:16.314Z,98680.05
2022-09-28T21:25:05.172Z,98680.39
2022-09-28T21:27:53.685Z,98677.48
2022-09-28T21:30:45.200Z,98682.42
2022-09-28T21:33:33.958Z,98677.61
2022-09-28T21:36:22.130Z,98672.73
2022-09-28T21:39:10.681Z,98668.66
2022-09-28T21:41:58.527Z,98668.65
2022-09-28T21:44:46.614Z,98671.08
2022-09-28T21:47:34.713Z,98673.46
2022-09-28T21:50:25.045Z,98678.25
2022-09-28T21:53:12.692Z,98682.52
2022-09-28T21:56:03.004Z,98690.07
2022-09-28T21:58:50.808Z,98691.11
2022-09-28T22:01:42.917Z,98691.30
2022-09-28T22:04:30.675Z,98691.66
2022-09-28T22:07:19.081Z,98691.61
2022-09-28T22:10:10.895Z,98694.90
2022-09-28T22:12:58.508Z,98698.98
2022-09-28T22:15:52.670Z,98701.91
2022-09-28T22:18:41.234Z,98698.41
2022-09-28T22:21:32.279Z,98697.05
2022-09-28T22:24:20.351Z,98713.11
2022-09-28T22:27:08.848Z,98721.40
2022-09-28T22:29:57.669Z,98722.46
2022-09-28T22:32:46.154Z,98720.40
2022-09-28T22:35:34.474Z,98716.39
2022-09-28T22:38:25.795Z,98716.91
2022-09-28T22:41:15.662Z,98709.27
2022-09-28T22:44:07.940Z,98708.36
2022-09-28T22:46:56.625Z,98710.27
2022-09-28T22:49:44.752Z,98712.66
2022-09-28T22:52:32.831Z,98717.12
2022-09-28T22:55:20.465Z,98718.05
2022-09-28T22:58:08.849Z,98724.02
2022-09-28T23:01:04.664Z,98720.02
2022-09-28T23:03:54.034Z,98719.89
2022-09-28T23:06:41.884Z,98715.31
2022-09-28T23:09:31.459Z,98716.25
2022-09-28T23:12:19.883Z,98716.09
2022-09-28T23:15:08.836Z,98722.89
2022-09-28T23:17:56.852Z,98725.13
2022-09-28T23:21:02.181Z,98729.25
2022-09-28T23:24:11.897Z,98735.34
2022-09-28T23:27:00.178Z,98738.77
2022-09-28T23:29:53.898Z,98742.70
2022-09-28T23:32:42.178Z,98739.83
2022-09-28T23:35:30.265Z,98734.13
2022-09-28T23:38:18.470Z,98733.08
2022-09-28T23:41:06.949Z,98737.73
2022-09-28T23:43:55.504Z,98744.90
2022-09-28T23:46:43.829Z,98744.60
2022-09-28T23:49:32.406Z,98754.05
2022-09-28T23:52:20.574Z,98754.18
2022-09-28T23:55:08.808Z,98765.19
2022-09-28T23:57:58.273Z,98769.02
